createdAt,value
2022-10-15T00:01:49.724Z,9.67
2022-10-15T00:04:18.160Z,9.65
2022-10-15T00:06:46.418Z,9.63
2022-10-15T00:09:14.721Z,9.62
2022-10-15T00:11:42.950Z,9.61
2022-10-15T00:14:11.166Z,9.59
2022-10-15T00:16:39.435Z,9.56
2022-10-15T00:19:07.825Z,9.54
2022-10-15T00:21:37.365Z,9.52
2022-10-15T00:24:06.368Z,9.51
2022-10-15T00:26:34.701Z,9.48
2022-10-15T00:29:04.526Z,9.48
2022-10-15T00:31:33.690Z,9.48
2022-10-15T00:34:03.026Z,9.48
2022-10-15T00:36:35.679Z,9.48
2022-10-15T00:39:06.718Z,9.47
2022-10-15T00:41:42.057Z,9.46
2022-10-15T00:44:26.836Z,9.45
2022-10-15T00:47:38.006Z,9.44
2022-10-15T00:50:13.111Z,9.42
2022-10-15T00:52:43.940Z,9.40
2022-10-15T00:55:33.157Z,9.38
2022-10-15T00:58:07.184Z,9.37
2022-10-15T01:00:35.949Z,9.37
2022-10-15T01:03:04.192Z,9.36
2022-10-15T01:05:34.925Z,9.36
2022-10-15T01:08:03.326Z,9.34
2022-10-15T01:11:10.034Z,9.35
2022-10-15T01:13:48.024Z,9.31
2022-10-15T01:16:32.274Z,9.31
2022-10-15T01:19:28.287Z,9.26
2022-10-15T01:22:10.150Z,9.30
2022-10-15T01:24:39.278Z,9.29
2022-10-15T01:27:47.309Z,9.25
2022-10-15T01:30:42.305Z,9.29
2022-10-15T01:33:29.877Z,9.35
2022-10-15T01:36:16.225Z,9.39
2022-10-15T01:38:51.865Z,9.41
2022-10-15T01:41:25.685Z,9.45
2022-10-15T01:44:12.371Z,9.47
2022-10-15T01:47:04.091Z,9.50
2022-10-15T01:49:39.048Z,9.51
2022-10-15T01:52:16.894Z,9.54
2022-10-15T01:54:50.993Z,9.55
2022-10-15T01:57:21.946Z,9.57
2022-10-15T01:59:54.262Z,9.59
2022-10-15T02:02:25.765Z,9.57
2022-10-15T02:04:54.218Z,9.57
2022-10-15T02:08:09.918Z,9.55
2022-10-15T02:10:55.868Z,9.54
2022-10-15T02:13:48.628Z,9.52
2022-10-15T02:16:36.574Z,9.49
2022-10-15T02:19:07.009Z,9.46
2022-10-15T02:21:59.516Z,9.44
2022-10-15T02:24:36.517Z,9.40
2022-10-15T02:27:08.580Z,9.36
2022-10-15T02:29:41.539Z,9.31
2022-10-15T02:32:12.402Z,9.27
2022-10-15T02:34:41.741Z,9.23
2022-10-15T02:37:10.162Z,9.20
2022-10-15T02:39:38.629Z,9.17
2022-10-15T02:42:07.488Z,9.13
2022-10-15T02:44:35.830Z,9.09
2022-10-15T02:47:04.501Z,9.05
2022-10-15T02:49:32.935Z,9.02
2022-10-15T02:52:01.189Z,8.98
2022-10-15T02:54:30.678Z,8.95
2022-10-15T02:57:01.920Z,8.93
2022-10-15T02:59:31.322Z,8.91
2022-10-15T03:02:00.102Z,8.86
2022-10-15T03:04:28.805Z,8.85
2022-10-15T03:06:57.278Z,8.83
2022-10-15T03:09:25.740Z,8.82
2022-10-15T03:11:54.112Z,8.81
2022-10-15T03:14:22.591Z,8.80
2022-10-15T03:16:51.085Z,8.78
2022-10-15T03:19:19.897Z,8.77
2022-10-15T03:21:48.293Z,8.75
2022-10-15T03:24:16.848Z,8.73
2022-10-15T03:26:45.328Z,8.71
2022-10-15T03:29:13.910Z,8.70
2022-10-15T03:31:49.880Z,8.68
2022-10-15T03:34:18.818Z,8.67
2022-10-15T03:36:47.538Z,8.65
2022-10-15T03:39:17.869Z,8.65
2022-10-15T03:41:46.355Z,8.63
2022-10-15T03:44:20.462Z,8.59
2022-10-15T03:46:58.856Z,8.58
2022-10-15T03:49:29.978Z,8.55
2022-10-15T03:51:58.297Z,8.53
2022-10-15T03:54:27.074Z,8.50
2022-10-15T03:56:55.753Z,8.47
2022-10-15T03:59:28.929Z,8.44
2022-10-15T04:01:59.889Z,8.41
2022-10-15T04:04:28.483Z,8.41
2022-10-15T04:06:56.946Z,8.39
2022-10-15T04:09:26.144Z,8.39
2022-10-15T04:11:58.327Z,8.40
2022-10-15T04:14:26.798Z,8.41
2022-10-15T04:16:59.138Z,8.42
2022-10-15T04:19:29.273Z,8.42
2022-10-15T04:22:03.196Z,8.42
2022-10-15T04:24:34.399Z,8.42
2022-10-15T04:27:03.570Z,8.40
2022-10-15T04:29:32.581Z,8.37
2022-10-15T04:32:15.645Z,8.36
2022-10-15T04:34:46.542Z,8.34
2022-10-15T04:37:15.629Z,8.36
2022-10-15T04:39:44.180Z,8.37
2022-10-15T04:42:15.121Z,8.32
2022-10-15T04:44:43.676Z,8.37
2022-10-15T04:47:13.701Z,8.38
2022-10-15T04:49:48.490Z,8.39
2022-10-15T04:52:28.605Z,8.38
2022-10-15T04:54:58.868Z,8.40
2022-10-15T04:57:27.371Z,8.38
2022-10-15T04:59:57.855Z,8.43
2022-10-15T05:02:38.045Z,8.49
2022-10-15T05:05:47.854Z,8.53
2022-10-15T05:08:16.643Z,8.56
2022-10-15T05:11:09.819Z,8.59
2022-10-15T05:13:38.627Z,8.61
2022-10-15T05:16:22.393Z,8.64
2022-10-15T05:18:53.528Z,8.65
2022-10-15T05:21:21.811Z,8.65
2022-10-15T05:23:52.537Z,8.65
2022-10-15T05:26:41.614Z,8.64
2022-10-15T05:29:10.180Z,8.64
2022-10-15T05:31:39.799Z,8.67
2022-10-15T05:34:15.688Z,8.69
2022-10-15T05:37:05.125Z,8.72
2022-10-15T05:39:33.459Z,8.73
2022-10-15T05:42:02.082Z,8.76
2022-10-15T05:44:37.514Z,8.81
2022-10-15T05:47:06.839Z,8.86
2022-10-15T05:49:36.083Z,8.90
2022-10-15T05:52:13.095Z,8.93
2022-10-15T05:55:00.052Z,8.98
2022-10-15T05:57:28.301Z,9.01
2022-10-15T05:59:57.153Z,9.05
2022-10-15T06:02:25.705Z,9.10
2022-10-15T06:04:54.204Z,9.15
2022-10-15T06:07:22.736Z,9.21
2022-10-15T06:09:51.898Z,9.26
2022-10-15T06:12:20.185Z,9.32
2022-10-15T06:14:49.185Z,9.38
2022-10-15T06:17:17.523Z,9.43
2022-10-15T06:19:48.849Z,9.48
2022-10-15T06:22:17.589Z,9.55
2022-10-15T06:24:45.816Z,9.60
2022-10-15T06:27:14.232Z,9.67
2022-10-15T06:29:42.507Z,9.73
2022-10-15T06:32:11.858Z,9.78
2022-10-15T06:34:44.816Z,9.85
2022-10-15T06:37:13.204Z,9.92
2022-10-15T06:39:41.475Z,9.98
2022-10-15T06:42:09.897Z,10.05
2022-10-15T06:44:41.805Z,10.12
2022-10-15T06:47:10.224Z,10.18
2022-10-15T06:49:38.540Z,10.24
2022-10-15T06:52:06.804Z,10.30
2022-10-15T06:54:35.102Z,10.37
2022-10-15T06:57:03.447Z,10.42
2022-10-15T06:59:31.718Z,10.47
2022-10-15T07:02:01.966Z,10.48
2022-10-15T07:04:30.193Z,10.58
2022-10-15T07:06:58.438Z,10.65
2022-10-15T07:09:31.558Z,10.70
2022-10-15T07:12:00.060Z,10.76
2022-10-15T07:14:28.577Z,10.80
2022-10-15T07:16:57.913Z,10.86
2022-10-15T07:19:28.554Z,10.91
2022-10-15T07:21:57.226Z,10.95
2022-10-15T07:24:25.501Z,11.00
2022-10-15T07:26:53.751Z,11.05
2022-10-15T07:29:22.053Z,11.10
2022-10-15T07:31:50.282Z,11.14
2022-10-15T07:34:19.997Z,11.19
2022-10-15T07:36:48.382Z,11.23
2022-10-15T07:39:19.365Z,11.27
2022-10-15T07:41:47.819Z,11.32
2022-10-15T07:44:16.239Z,11.37
2022-10-15T07:46:44.460Z,11.44
2022-10-15T07:49:12.813Z,11.50
2022-10-15T07:51:41.282Z,11.56
2022-10-15T07:54:09.654Z,11.63
2022-10-15T07:56:37.889Z,11.70
2022-10-15T07:59:08.386Z,11.77
2022-10-15T08:01:36.789Z,11.82
2022-10-15T08:04:05.084Z,11.89
2022-10-15T08:06:33.779Z,11.96
2022-10-15T08:09:04.355Z,12.02
2022-10-15T08:11:32.598Z,12.07
2022-10-15T08:14:00.753Z,12.12
2022-10-15T08:16:28.989Z,12.16
2022-10-15T08:19:01.138Z,12.23
2022-10-15T08:21:29.654Z,12.29
2022-10-15T08:23:57.910Z,12.36
2022-10-15T08:26:35.447Z,12.42
2022-10-15T08:29:04.519Z,12.47
2022-10-15T08:31:32.888Z,12.51
2022-10-15T08:34:02.785Z,12.55
2022-10-15T08:36:31.277Z,12.63
2022-10-15T08:39:00.003Z,12.68
2022-10-15T08:41:51.413Z,12.74
2022-10-15T08:44:24.538Z,12.77
2022-10-15T08:47:08.506Z,12.82
2022-10-15T08:49:52.288Z,12.85
2022-10-15T08:52:59.226Z,12.88
2022-10-15T08:55:36.208Z,12.89
2022-10-15T08:58:17.261Z,12.91
2022-10-15T09:00:56.785Z,12.95
2022-10-15T09:03:45.532Z,12.99
2022-10-15T09:06:22.609Z,13.02
2022-10-15T09:09:45.909Z,13.06
2022-10-15T09:12:50.518Z,13.11
2022-10-15T09:15:25.398Z,13.18
2022-10-15T09:17:56.085Z,13.22
2022-10-15T09:20:36.133Z,13.25
2022-10-15T09:23:16.966Z,13.30
2022-10-15T09:25:52.207Z,13.35
2022-10-15T09:28:26.179Z,13.38
2022-10-15T09:30:58.403Z,13.40
2022-10-15T09:33:57.554Z,13.44
2022-10-15T09:36:52.101Z,13.48
2022-10-15T09:39:43.669Z,13.51
2022-10-15T09:42:31.918Z,13.52
2022-10-15T09:45:10.052Z,13.51
2022-10-15T09:47:42.833Z,13.50
2022-10-15T09:50:14.735Z,13.51
2022-10-15T09:53:15.522Z,13.44
2022-10-15T09:55:56.363Z,13.51
2022-10-15T09:58:37.743Z,13.50
2022-10-15T10:01:16.629Z,13.50
2022-10-15T10:03:44.780Z,13.49
2022-10-15T10:06:15.708Z,13.48
2022-10-15T10:08:59.553Z,13.45
2022-10-15T10:11:47.637Z,13.42
2022-10-15T10:14:39.677Z,13.38
2022-10-15T10:17:23.698Z,13.35
2022-10-15T10:20:10.419Z,13.33
2022-10-15T10:22:50.518Z,13.33
2022-10-15T10:25:27.890Z,13.33
2022-10-15T10:28:09.547Z,13.30
2022-10-15T10:30:54.474Z,13.29
2022-10-15T10:33:28.912Z,13.24
2022-10-15T10:35:57.638Z,13.20
2022-10-15T10:38:33.626Z,13.19
2022-10-15T10:41:11.888Z,13.18
2022-10-15T10:43:53.053Z,13.18
2022-10-15T10:46:24.650Z,13.16
2022-10-15T10:48:54.228Z,13.17
2022-10-15T10:51:27.043Z,13.18
2022-10-15T10:54:06.976Z,13.19
2022-10-15T10:56:42.701Z,13.19
2022-10-15T10:59:37.897Z,13.20
2022-10-15T11:02:12.439Z,13.21
2022-10-15T11:04:40.871Z,13.21
2022-10-15T11:07:35.454Z,13.20
2022-10-15T11:10:19.306Z,13.21
2022-10-15T11:13:18.921Z,13.22
2022-10-15T11:16:31.244Z,13.23
2022-10-15T11:19:55.002Z,13.23
2022-10-15T11:22:33.006Z,13.21
2022-10-15T11:25:39.345Z,13.18
2022-10-15T11:28:45.127Z,13.21
2022-10-15T11:31:25.515Z,13.20
2022-10-15T11:34:18.054Z,13.22
2022-10-15T11:37:21.686Z,13.23
2022-10-15T11:40:37.984Z,13.25
2022-10-15T11:43:31.149Z,13.22
2022-10-15T11:46:11.558Z,13.24
2022-10-15T11:48:55.414Z,13.24
2022-10-15T11:52:03.971Z,13.23
2022-10-15T11:54:38.655Z,13.26
2022-10-15T11:57:13.365Z,13.26
2022-10-15T12:00:07.442Z,13.25
2022-10-15T12:02:40.678Z,13.25
2022-10-15T12:05:27.738Z,13.27
2022-10-15T12:07:56.765Z,13.28
2022-10-15T12:11:07.656Z,13.28
2022-10-15T12:14:25.296Z,13.26
2022-10-15T12:17:15.624Z,13.25
2022-10-15T12:20:00.928Z,13.25
2022-10-15T12:22:41.261Z,13.23
2022-10-15T12:25:35.294Z,13.21
2022-10-15T12:28:22.695Z,13.21
2022-10-15T12:31:06.445Z,13.20
2022-10-15T12:33:57.989Z,13.22
2022-10-15T12:36:30.567Z,13.19
2022-10-15T12:39:11.459Z,13.23
2022-10-15T12:41:50.987Z,13.25
2022-10-15T12:44:28.467Z,13.25
2022-10-15T12:46:58.434Z,13.24
2022-10-15T12:49:26.624Z,13.25
2022-10-15T12:51:56.431Z,13.25
2022-10-15T12:54:41.248Z,13.28
2022-10-15T12:57:31.226Z,13.30
2022-10-15T13:00:38.961Z,13.30
2022-10-15T13:03:31.587Z,13.29
2022-10-15T13:06:22.002Z,13.32
2022-10-15T13:09:11.742Z,13.35
2022-10-15T13:11:53.041Z,13.39
2022-10-15T13:14:42.956Z,13.44
2022-10-15T13:17:20.965Z,13.49
2022-10-15T13:20:09.081Z,13.53
2022-10-15T13:22:37.638Z,13.62
2022-10-15T13:25:17.451Z,13.70
2022-10-15T13:27:45.717Z,13.79
2022-10-15T13:30:16.762Z,13.89
2022-10-15T13:32:54.407Z,14.03
2022-10-15T13:35:33.269Z,14.18
2022-10-15T13:38:05.292Z,14.36
2022-10-15T13:40:33.766Z,14.53
2022-10-15T13:43:02.839Z,14.66
2022-10-15T13:45:31.492Z,14.87
2022-10-15T13:48:00.524Z,15.03
2022-10-15T13:50:50.387Z,15.19
2022-10-15T13:53:27.643Z,15.33
2022-10-15T13:56:01.510Z,15.41
2022-10-15T13:58:37.759Z,15.47
2022-10-15T14:01:20.809Z,15.46
2022-10-15T14:04:00.971Z,15.35
2022-10-15T14:06:38.750Z,15.14
2022-10-15T14:09:27.203Z,14.95
2022-10-15T14:12:00.551Z,14.68
2022-10-15T14:14:46.634Z,14.50
2022-10-15T14:17:20.597Z,14.33
2022-10-15T14:20:22.083Z,14.19
2022-10-15T14:22:49.671Z,14.03
2022-10-15T14:25:25.167Z,13.91
2022-10-15T14:27:53.804Z,13.77
2022-10-15T14:30:33.273Z,13.67
2022-10-15T14:33:01.757Z,13.55
2022-10-15T14:35:36.697Z,13.43
2022-10-15T14:38:10.933Z,13.34
2022-10-15T14:40:39.235Z,13.25
2022-10-15T14:43:17.546Z,13.18
2022-10-15T14:45:52.282Z,13.05
2022-10-15T14:48:39.014Z,13.00
2022-10-15T14:51:17.686Z,12.92
2022-10-15T14:53:47.364Z,12.84
2022-10-15T14:56:32.258Z,12.78
2022-10-15T14:59:01.318Z,12.71
2022-10-15T15:01:34.052Z,12.64
2022-10-15T15:04:02.463Z,12.56
2022-10-15T15:06:32.907Z,12.49
2022-10-15T15:09:01.170Z,12.42
2022-10-15T15:11:29.538Z,12.36
2022-10-15T15:13:57.952Z,12.29
2022-10-15T15:16:26.237Z,12.22
2022-10-15T15:18:54.604Z,12.16
2022-10-15T15:21:23.785Z,12.10
2022-10-15T15:23:52.085Z,11.99
2022-10-15T15:26:20.373Z,11.97
2022-10-15T15:28:48.656Z,11.91
2022-10-15T15:31:18.803Z,11.86
2022-10-15T15:33:47.079Z,11.81
2022-10-15T15:36:22.484Z,11.76
2022-10-15T15:38:52.215Z,11.71
2022-10-15T15:41:24.076Z,11.67
2022-10-15T15:43:55.181Z,11.61
2022-10-15T15:46:23.584Z,11.51
2022-10-15T15:48:51.821Z,11.51
2022-10-15T15:51:25.582Z,11.42
2022-10-15T15:53:54.802Z,11.43
2022-10-15T15:56:23.619Z,11.37
2022-10-15T15:58:51.969Z,11.34
2022-10-15T16:01:21.298Z,11.30
2022-10-15T16:03:49.671Z,11.27
2022-10-15T16:06:18.149Z,11.24
2022-10-15T16:08:46.468Z,11.22
2022-10-15T16:11:14.818Z,11.18
2022-10-15T16:13:43.331Z,11.16
2022-10-15T16:16:13.222Z,11.14
2022-10-15T16:18:42.133Z,11.12
2022-10-15T16:21:10.397Z,11.09
2022-10-15T16:23:38.642Z,11.06
2022-10-15T16:26:06.935Z,11.04
2022-10-15T16:28:35.328Z,11.01
2022-10-15T16:31:36.745Z,10.99
2022-10-15T16:34:05.351Z,10.95
2022-10-15T16:36:33.916Z,10.94
2022-10-15T16:39:03.623Z,10.91
2022-10-15T16:41:32.021Z,10.88
2022-10-15T16:44:00.381Z,10.86
2022-10-15T16:46:28.774Z,10.84
2022-10-15T16:48:58.010Z,10.82
2022-10-15T16:51:26.916Z,10.80
2022-10-15T16:53:55.447Z,10.77
2022-10-15T16:56:27.800Z,10.74
2022-10-15T16:58:56.507Z,10.71
2022-10-15T17:01:28.746Z,10.69
2022-10-15T17:03:59.772Z,10.67
2022-10-15T17:06:31.059Z,10.65
2022-10-15T17:09:03.708Z,10.62
2022-10-15T17:11:35.803Z,10.61
2022-10-15T17:14:11.658Z,10.59
2022-10-15T17:16:51.470Z,10.57
2022-10-15T17:19:29.136Z,10.54
2022-10-15T17:22:00.163Z,10.52
2022-10-15T17:24:28.721Z,10.50
2022-10-15T17:26:58.192Z,10.48
2022-10-15T17:29:29.159Z,10.46
2022-10-15T17:32:03.164Z,10.43
2022-10-15T17:34:31.557Z,10.40
2022-10-15T17:36:59.934Z,10.38
2022-10-15T17:39:28.295Z,10.36
2022-10-15T17:41:56.469Z,10.34
2022-10-15T17:44:24.952Z,10.31
2022-10-15T17:46:53.448Z,10.29
2022-10-15T17:49:27.748Z,10.28
2022-10-15T17:51:56.346Z,10.26
2022-10-15T17:54:24.827Z,10.23
2022-10-15T17:56:53.410Z,10.21
2022-10-15T17:59:21.891Z,10.19
2022-10-15T18:01:58.262Z,10.17
2022-10-15T18:04:29.913Z,10.15
2022-10-15T18:06:58.534Z,10.10
2022-10-15T18:09:28.391Z,10.08
2022-10-15T18:12:00.748Z,10.05
2022-10-15T18:14:30.308Z,10.02
2022-10-15T18:16:58.773Z,10.00
2022-10-15T18:19:28.340Z,9.99
2022-10-15T18:21:57.182Z,9.96
2022-10-15T18:24:25.541Z,9.93
2022-10-15T18:26:54.396Z,9.91
2022-10-15T18:29:24.122Z,9.87
2022-10-15T18:31:57.351Z,9.86
2022-10-15T18:34:28.477Z,9.84
2022-10-15T18:36:57.177Z,9.83
2022-10-15T18:39:27.181Z,9.81
2022-10-15T18:41:55.647Z,9.79
2022-10-15T18:44:24.666Z,9.76
2022-10-15T18:46:53.030Z,9.72
2022-10-15T18:49:22.513Z,9.69
2022-10-15T18:51:52.032Z,9.61
2022-10-15T18:54:21.133Z,9.61
2022-10-15T18:56:50.678Z,9.59
2022-10-15T18:59:20.863Z,9.56
2022-10-15T19:01:51.058Z,9.52
2022-10-15T19:04:20.312Z,9.49
2022-10-15T19:06:52.121Z,9.46
2022-10-15T19:09:26.442Z,9.44
2022-10-15T19:11:56.536Z,9.43
2022-10-15T19:14:28.320Z,9.42
2022-10-15T19:16:58.115Z,9.42
2022-10-15T19:19:26.804Z,9.39
2022-10-15T19:21:58.590Z,9.37
2022-10-15T19:24:26.901Z,9.35
2022-10-15T19:26:55.286Z,9.34
2022-10-15T19:29:24.307Z,9.33
2022-10-15T19:31:55.178Z,9.33
2022-10-15T19:34:25.302Z,9.33
2022-10-15T19:36:53.671Z,9.31
2022-10-15T19:39:24.438Z,9.29
2022-10-15T19:41:53.191Z,9.27
2022-10-15T19:44:25.788Z,9.25
2022-10-15T19:46:56.384Z,9.26
2022-10-15T19:49:25.521Z,9.24
2022-10-15T19:51:53.859Z,9.24
2022-10-15T19:54:22.688Z,9.24
2022-10-15T19:56:50.983Z,9.22
2022-10-15T19:59:19.377Z,9.21
2022-10-15T20:01:47.966Z,9.20
2022-10-15T20:04:20.634Z,9.19
2022-10-15T20:06:52.738Z,9.18
2022-10-15T20:09:21.005Z,9.17
2022-10-15T20:11:49.384Z,9.15
2022-10-15T20:14:17.887Z,9.13
2022-10-15T20:16:46.258Z,9.11
2022-10-15T20:19:14.636Z,9.10
2022-10-15T20:21:42.993Z,9.04
2022-10-15T20:24:11.260Z,9.08
2022-10-15T20:26:40.473Z,9.03
2022-10-15T20:29:09.789Z,9.07
2022-10-15T20:31:38.372Z,9.06
2022-10-15T20:34:06.641Z,9.05
2022-10-15T20:36:35.046Z,9.05
2022-10-15T20:39:03.499Z,9.04
2022-10-15T20:41:31.862Z,9.04
2022-10-15T20:44:00.232Z,9.04
2022-10-15T20:46:38.688Z,9.04
2022-10-15T20:51:45.954Z,9.04
2022-10-15T20:54:14.785Z,9.04
2022-10-15T20:56:43.249Z,9.03
2022-10-15T20:59:12.453Z,9.01
2022-10-15T21:01:40.813Z,9.03
2022-10-15T21:04:09.182Z,9.04
2022-10-15T21:06:37.582Z,9.03
2022-10-15T21:09:05.949Z,9.04
2022-10-15T21:11:34.234Z,9.02
2022-10-15T21:14:02.606Z,9.03
2022-10-15T21:19:04.925Z,8.99
2022-10-15T21:21:33.319Z,8.96
2022-10-15T21:24:01.679Z,8.94
2022-10-15T21:26:29.934Z,8.93
2022-10-15T21:29:00.261Z,8.92
2022-10-15T21:31:28.774Z,8.90
2022-10-15T21:33:57.405Z,8.88
2022-10-15T21:36:28.463Z,8.87
2022-10-15T21:39:03.884Z,8.87
2022-10-15T21:41:34.141Z,8.87
2022-10-15T21:44:05.248Z,8.87
2022-10-15T21:46:34.782Z,8.89
2022-10-15T21:49:04.162Z,8.90
2022-10-15T21:51:36.325Z,8.89
2022-10-15T21:54:07.259Z,8.89
2022-10-15T21:56:36.559Z,8.87
2022-10-15T21:59:05.461Z,8.86
2022-10-15T22:01:37.989Z,8.86
2022-10-15T22:04:10.201Z,8.85
2022-10-15T22:06:40.427Z,8.84
2022-10-15T22:09:10.662Z,8.82
2022-10-15T22:11:41.561Z,8.78
2022-10-15T22:14:13.927Z,8.74
2022-10-15T22:16:42.959Z,8.72
2022-10-15T22:19:15.542Z,8.68
2022-10-15T22:21:44.781Z,8.66
2022-10-15T22:24:20.259Z,8.65
2022-10-15T22:26:52.148Z,8.63
2022-10-15T22:29:31.674Z,8.62
2022-10-15T22:32:04.257Z,8.60
2022-10-15T22:34:32.643Z,8.57
2022-10-15T22:37:00.915Z,8.58
2022-10-15T22:39:29.402Z,8.56
2022-10-15T22:41:57.774Z,8.55
2022-10-15T22:44:26.050Z,8.55
2022-10-15T22:46:54.408Z,8.54
2022-10-15T22:49:25.674Z,8.53
2022-10-15T22:51:53.908Z,8.51
2022-10-15T22:54:23.402Z,8.48
2022-10-15T22:56:52.134Z,8.47
2022-10-15T22:59:20.714Z,8.46
2022-10-15T23:01:49.204Z,8.45
2022-10-15T23:04:17.476Z,8.45
2022-10-15T23:06:45.940Z,8.44
2022-10-15T23:09:18.158Z,8.38
2022-10-15T23:11:47.039Z,8.39
2022-10-15T23:14:16.802Z,8.36
2022-10-15T23:16:48.082Z,8.33
2022-10-15T23:19:20.642Z,8.33
2022-10-15T23:21:58.326Z,8.32
2022-10-15T23:24:27.722Z,8.29
2022-10-15T23:26:56.403Z,8.28
2022-10-15T23:29:27.010Z,8.26
2022-10-15T23:31:55.598Z,8.23
2022-10-15T23:34:26.240Z,8.18
2022-10-15T23:36:54.976Z,8.16
2022-10-15T23:39:25.833Z,8.12
2022-10-15T23:41:54.887Z,8.03
2022-10-15T23:44:25.942Z,7.98
2022-10-15T23:46:55.111Z,7.91
2022-10-15T23:49:23.638Z,7.88
2022-10-15T23:51:51.997Z,7.85
2022-10-15T23:54:20.493Z,7.82
2022-10-15T23:56:48.959Z,7.81
2022-10-15T23:59:18.477Z,7.78
